createdAt,value
2022-10-28T00:01:10.387Z,35.55
2022-10-28T00:03:39.626Z,33.97
2022-10-28T00:06:08.641Z,40.03
2022-10-28T00:08:36.010Z,35.15
2022-10-28T00:11:08.181Z,34.90
2022-10-28T00:13:35.679Z,38.47
2022-10-28T00:16:14.113Z,37.15
2022-10-28T00:18:41.767Z,37.88
2022-10-28T00:21:14.606Z,35.45
2022-10-28T00:23:42.262Z,34.92
2022-10-28T00:26:10.645Z,36.90
2022-10-28T00:28:58.750Z,37.17
2022-10-28T00:31:27.031Z,41.60
2022-10-28T00:33:54.496Z,41.88
2022-10-28T00:36:26.540Z,37.95
2022-10-28T00:38:55.215Z,35.38
2022-10-28T00:41:26.099Z,38.13
2022-10-28T00:43:55.537Z,41.83
2022-10-28T00:46:41.203Z,38.15
2022-10-28T00:49:19.139Z,39.63
2022-10-28T00:51:46.965Z,36.50
2022-10-28T00:54:14.728Z,43.47
2022-10-28T00:56:46.517Z,40.00
2022-10-28T00:59:18.789Z,40.75
2022-10-28T01:01:46.487Z,33.97
2022-10-28T01:04:14.085Z,41.25
2022-10-28T01:06:41.412Z,36.15
2022-10-28T01:09:09.069Z,35.30
2022-10-28T01:11:44.294Z,37.95
2022-10-28T01:14:20.826Z,34.70
2022-10-28T01:17:31.346Z,35.03
2022-10-28T01:20:34.890Z,34.13
2022-10-28T01:23:28.060Z,37.60
2022-10-28T01:26:14.297Z,36.72
2022-10-28T01:28:53.421Z,30.85
2022-10-28T01:31:31.324Z,35.33
2022-10-28T01:34:49.422Z,36.25
2022-10-28T01:37:21.007Z,38.47
2022-10-28T01:39:54.190Z,42.38
2022-10-28T01:42:38.718Z,41.37
2022-10-28T01:45:25.822Z,42.00
2022-10-28T01:47:55.685Z,45.63
2022-10-28T01:50:37.331Z,44.05
2022-10-28T01:53:07.735Z,36.65
2022-10-28T01:55:37.719Z,41.28
2022-10-28T01:58:05.489Z,42.08
2022-10-28T02:00:33.324Z,39.42
2022-10-28T02:03:00.986Z,42.10
2022-10-28T02:05:44.366Z,43.20
2022-10-28T02:08:18.055Z,46.05
2022-10-28T02:11:18.290Z,46.28
2022-10-28T02:13:55.530Z,40.97
2022-10-28T02:16:41.533Z,38.42
2022-10-28T02:21:59.563Z,41.47
2022-10-28T02:24:46.467Z,38.25
2022-10-28T02:27:35.615Z,43.72
2022-10-28T02:30:07.550Z,42.35
2022-10-28T02:32:40.024Z,46.37
2022-10-28T02:35:10.416Z,46.08
2022-10-28T02:37:37.728Z,48.33
2022-10-28T02:40:07.144Z,37.33
2022-10-28T02:42:37.188Z,45.50
2022-10-28T02:45:25.709Z,42.08
2022-10-28T02:47:58.038Z,40.95
2022-10-28T02:50:29.281Z,40.83
2022-10-28T02:52:58.759Z,40.47
2022-10-28T02:55:28.953Z,41.13
2022-10-28T02:57:56.689Z,44.78
2022-10-28T03:00:25.018Z,46.10
2022-10-28T03:02:52.356Z,45.47
2022-10-28T03:05:20.778Z,48.17
2022-10-28T03:07:48.122Z,48.47
2022-10-28T03:10:15.660Z,46.78
2022-10-28T03:12:43.264Z,50.42
2022-10-28T03:15:11.039Z,44.90
2022-10-28T03:17:38.369Z,45.97
2022-10-28T03:20:06.394Z,42.20
2022-10-28T03:22:33.728Z,48.38
2022-10-28T03:25:01.058Z,48.78
2022-10-28T03:27:28.655Z,44.20
2022-10-28T03:29:55.998Z,47.22
2022-10-28T03:32:23.332Z,51.90
2022-10-28T03:34:50.948Z,50.03
2022-10-28T03:37:18.286Z,51.40
2022-10-28T03:39:45.602Z,50.75
2022-10-28T03:42:13.221Z,53.28
2022-10-28T03:44:40.545Z,54.83
2022-10-28T03:47:07.896Z,54.88
2022-10-28T03:49:35.479Z,51.50
2022-10-28T03:52:04.061Z,56.13
2022-10-28T03:54:31.400Z,55.03
2022-10-28T03:56:58.971Z,56.03
2022-10-28T03:59:26.278Z,48.92
2022-10-28T04:01:53.721Z,55.55
2022-10-28T04:04:21.474Z,50.03
2022-10-28T04:06:48.809Z,54.70
2022-10-28T04:09:16.125Z,49.13
2022-10-28T04:11:43.723Z,56.92
2022-10-28T04:14:11.066Z,52.85
2022-10-28T04:16:38.395Z,48.58
2022-10-28T04:19:05.994Z,61.10
2022-10-28T04:21:33.417Z,58.95
2022-10-28T04:24:00.730Z,57.38
2022-10-28T04:26:28.342Z,52.75
2022-10-28T04:28:55.686Z,57.88
2022-10-28T04:31:23.034Z,58.55
2022-10-28T04:33:50.973Z,57.92
2022-10-28T04:36:19.162Z,55.08
2022-10-28T04:38:46.519Z,56.70
2022-10-28T04:41:14.484Z,62.53
2022-10-28T04:43:41.788Z,67.97
2022-10-28T04:46:09.208Z,61.10
2022-10-28T04:48:36.883Z,66.78
2022-10-28T04:51:04.342Z,60.78
2022-10-28T04:53:31.709Z,58.50
2022-10-28T04:55:59.442Z,56.00
2022-10-28T04:58:26.785Z,65.43
2022-10-28T05:00:54.110Z,59.83
2022-10-28T05:03:21.725Z,57.17
2022-10-28T05:05:49.080Z,70.95
2022-10-28T05:08:16.416Z,64.68
2022-10-28T05:10:45.181Z,64.78
2022-10-28T05:13:12.494Z,68.00
2022-10-28T05:15:39.829Z,67.95
2022-10-28T05:18:07.506Z,80.15
2022-10-28T05:20:34.849Z,56.47
2022-10-28T05:23:02.192Z,50.12
2022-10-28T05:25:29.800Z,75.28
2022-10-28T05:28:00.243Z,55.30
2022-10-28T05:30:27.978Z,71.43
2022-10-28T05:33:01.001Z,96.20
2022-10-28T05:35:29.358Z,75.22
2022-10-28T05:37:56.997Z,58.33
2022-10-28T05:40:24.492Z,58.65
2022-10-28T05:42:52.100Z,55.05
2022-10-28T05:45:20.026Z,60.65
2022-10-28T05:47:48.287Z,57.15
2022-10-28T05:50:17.572Z,55.08
2022-10-28T05:52:49.435Z,49.92
2022-10-28T05:55:19.480Z,52.75
2022-10-28T05:57:47.643Z,47.17
2022-10-28T06:00:15.190Z,45.15
2022-10-28T06:02:42.943Z,48.00
2022-10-28T06:05:12.048Z,49.80
2022-10-28T06:07:39.807Z,37.42
2022-10-28T06:10:08.516Z,44.83
2022-10-28T06:12:36.868Z,37.33
2022-10-28T06:15:04.466Z,43.63
2022-10-28T06:17:32.143Z,42.58
2022-10-28T06:19:59.511Z,43.03
2022-10-28T06:22:26.902Z,47.95
2022-10-28T06:24:54.505Z,43.00
2022-10-28T06:27:21.856Z,39.92
2022-10-28T06:29:49.199Z,36.42
2022-10-28T06:32:16.784Z,38.05
2022-10-28T06:34:44.106Z,34.40
2022-10-28T06:37:12.679Z,37.47
2022-10-28T06:39:42.000Z,35.13
2022-10-28T06:42:09.349Z,36.10
2022-10-28T06:44:36.668Z,34.67
2022-10-28T06:47:05.833Z,38.72
2022-10-28T06:49:33.232Z,38.90
2022-10-28T06:52:00.950Z,38.70
2022-10-28T06:54:28.659Z,37.55
2022-10-28T06:56:56.003Z,29.63
2022-10-28T06:59:23.353Z,38.38
2022-10-28T07:01:51.057Z,32.45
2022-10-28T07:04:18.496Z,31.92
2022-10-28T07:06:48.583Z,30.52
2022-10-28T07:09:18.933Z,33.25
2022-10-28T07:11:52.154Z,33.03
2022-10-28T07:14:21.335Z,27.60
2022-10-28T07:16:48.661Z,36.63
2022-10-28T07:19:19.024Z,32.78
2022-10-28T07:21:49.377Z,27.58
2022-10-28T07:24:16.748Z,30.83
2022-10-28T07:26:44.129Z,28.90
2022-10-28T07:29:11.703Z,26.77
2022-10-28T07:31:38.998Z,27.40
2022-10-28T07:34:06.361Z,29.67
2022-10-28T07:36:34.003Z,32.83
2022-10-28T07:39:03.771Z,30.08
2022-10-28T07:41:31.313Z,33.78
2022-10-28T07:43:58.931Z,29.58
2022-10-28T07:46:26.271Z,32.28
2022-10-28T07:48:53.625Z,29.42
2022-10-28T07:51:21.251Z,31.05
2022-10-28T07:53:48.674Z,27.85
2022-10-28T07:56:16.203Z,24.02
2022-10-28T07:58:44.371Z,33.15
2022-10-28T08:01:14.477Z,32.75
2022-10-28T08:03:42.188Z,34.15
2022-10-28T08:06:13.249Z,32.67
2022-10-28T08:08:40.678Z,27.25
2022-10-28T08:11:22.652Z,27.17
2022-10-28T08:13:50.901Z,27.42
2022-10-28T08:16:18.587Z,29.42
2022-10-28T08:18:46.201Z,27.75
2022-10-28T08:21:13.632Z,26.62
2022-10-28T08:23:41.769Z,26.40
2022-10-28T08:26:09.105Z,26.20
2022-10-28T08:28:36.491Z,25.05
2022-10-28T08:31:08.573Z,27.15
2022-10-28T08:33:37.969Z,26.23
2022-10-28T08:36:09.610Z,23.98
2022-10-28T08:38:39.567Z,22.60
2022-10-28T08:41:46.745Z,34.45
2022-10-28T08:44:34.844Z,30.70
2022-10-28T08:47:21.348Z,20.98
2022-10-28T08:52:38.122Z,28.67
2022-10-28T08:55:07.992Z,25.50
2022-10-28T08:57:40.753Z,26.08
2022-10-28T09:00:20.372Z,28.12
2022-10-28T09:02:53.952Z,25.45
2022-10-28T09:05:22.952Z,31.98
2022-10-28T09:07:50.701Z,25.85
2022-10-28T09:10:20.090Z,24.75
2022-10-28T09:13:11.647Z,22.83
2022-10-28T09:18:22.992Z,26.02
2022-10-28T09:20:55.723Z,26.08
2022-10-28T09:23:57.798Z,23.48
2022-10-28T09:26:40.364Z,25.05
2022-10-28T09:29:18.119Z,21.10
2022-10-28T09:31:47.564Z,21.15
2022-10-28T09:34:34.176Z,22.25
2022-10-28T09:37:11.273Z,21.80
2022-10-28T09:39:50.464Z,23.30
2022-10-28T09:42:35.138Z,23.92
2022-10-28T09:45:04.839Z,21.02
2022-10-28T09:47:37.988Z,22.35
2022-10-28T09:50:08.400Z,23.20
2022-10-28T09:52:56.548Z,24.90
2022-10-28T09:55:23.891Z,22.00
2022-10-28T09:57:51.773Z,27.48
2022-10-28T10:00:19.367Z,22.13
2022-10-28T10:02:47.092Z,24.67
2022-10-28T10:05:17.927Z,23.70
2022-10-28T10:07:53.919Z,24.50
2022-10-28T10:12:59.487Z,22.70
2022-10-28T10:15:32.191Z,23.08
2022-10-28T10:18:00.841Z,25.80
2022-10-28T10:20:28.565Z,19.23
2022-10-28T10:22:56.166Z,22.45
2022-10-28T10:25:29.943Z,22.15
2022-10-28T10:27:59.574Z,23.50
2022-10-28T10:30:38.086Z,21.12
2022-10-28T10:33:05.931Z,24.50
2022-10-28T10:35:37.297Z,23.48
2022-10-28T10:38:09.036Z,22.23
2022-10-28T10:40:48.268Z,23.60
2022-10-28T10:43:18.239Z,22.65
2022-10-28T10:46:03.097Z,22.37
2022-10-28T10:48:36.227Z,21.90
2022-10-28T10:51:23.278Z,24.27
2022-10-28T10:53:52.147Z,25.48
2022-10-28T10:56:30.782Z,22.27
2022-10-28T10:59:06.468Z,23.25
2022-10-28T11:01:38.763Z,22.33
2022-10-28T11:04:06.927Z,20.20
2022-10-28T11:06:37.095Z,20.12
2022-10-28T11:09:06.205Z,19.35
2022-10-28T11:11:40.141Z,22.48
2022-10-28T11:14:10.743Z,20.95
2022-10-28T11:16:54.432Z,21.37
2022-10-28T11:19:23.427Z,22.23
2022-10-28T11:22:13.662Z,22.08
2022-10-28T11:25:18.728Z,24.30
2022-10-28T11:28:24.323Z,21.53
2022-10-28T11:31:00.827Z,24.87
2022-10-28T11:33:50.018Z,20.85
2022-10-28T11:36:28.823Z,21.12
2022-10-28T11:39:05.163Z,23.17
2022-10-28T11:42:07.247Z,24.65
2022-10-28T11:44:54.590Z,24.83
2022-10-28T11:47:37.789Z,21.33
2022-10-28T11:50:08.134Z,26.83
2022-10-28T11:52:49.962Z,25.52
2022-10-28T11:55:36.031Z,24.55
2022-10-28T11:58:21.381Z,25.40
2022-10-28T12:01:04.965Z,27.30
2022-10-28T12:03:51.313Z,26.12
2022-10-28T12:06:32.522Z,24.63
2022-10-28T12:09:34.196Z,23.62
2022-10-28T12:12:10.048Z,22.98
2022-10-28T12:14:40.220Z,21.33
2022-10-28T12:17:18.105Z,23.87
2022-10-28T12:19:59.786Z,24.45
2022-10-28T12:22:29.635Z,23.38
2022-10-28T12:24:57.343Z,23.50
2022-10-28T12:27:30.140Z,24.87
2022-10-28T12:30:01.079Z,27.80
2022-10-28T12:32:30.337Z,25.88
2022-10-28T12:35:18.169Z,24.95
2022-10-28T12:38:15.097Z,30.95
2022-10-28T12:40:59.874Z,31.17
2022-10-28T12:43:33.971Z,24.55
2022-10-28T12:46:01.699Z,24.37
2022-10-28T12:48:45.731Z,28.95
2022-10-28T12:51:34.393Z,27.13
2022-10-28T12:54:10.013Z,30.08
2022-10-28T12:56:38.096Z,26.08
2022-10-28T12:59:30.747Z,28.12
2022-10-28T13:02:01.351Z,25.02
2022-10-28T13:04:28.959Z,30.98
2022-10-28T13:07:10.063Z,29.10
2022-10-28T13:09:43.693Z,25.88
2022-10-28T13:13:12.585Z,30.23
2022-10-28T13:15:59.396Z,25.80
2022-10-28T13:18:54.189Z,28.73
2022-10-28T13:21:33.754Z,30.80
2022-10-28T13:24:13.742Z,29.83
2022-10-28T13:26:42.286Z,27.80
2022-10-28T13:29:21.968Z,28.33
2022-10-28T13:31:49.615Z,31.73
2022-10-28T13:34:18.043Z,32.70
2022-10-28T13:36:46.948Z,30.15
2022-10-28T13:39:29.771Z,30.75
2022-10-28T13:42:16.020Z,34.72
2022-10-28T13:44:56.568Z,30.92
2022-10-28T13:47:34.399Z,31.08
2022-10-28T13:50:09.313Z,31.65
2022-10-28T13:52:41.064Z,37.00
2022-10-28T13:55:41.692Z,31.80
2022-10-28T13:58:20.466Z,38.42
2022-10-28T14:00:50.579Z,32.70
2022-10-28T14:03:22.807Z,40.72
2022-10-28T14:05:52.273Z,30.45
2022-10-28T14:08:31.049Z,35.55
2022-10-28T14:11:04.120Z,40.72
2022-10-28T14:13:38.964Z,31.10
2022-10-28T14:16:38.328Z,35.78
2022-10-28T14:19:11.565Z,37.58
2022-10-28T14:22:05.438Z,37.38
2022-10-28T14:24:37.451Z,37.83
2022-10-28T14:27:08.072Z,34.92
2022-10-28T14:29:48.423Z,41.10
2022-10-28T14:32:31.013Z,39.50
2022-10-28T14:35:19.538Z,38.95
2022-10-28T14:38:02.280Z,36.53
2022-10-28T14:40:44.593Z,41.53
2022-10-28T14:43:23.916Z,36.30
2022-10-28T14:46:04.086Z,38.35
2022-10-28T14:48:47.669Z,43.90
2022-10-28T14:51:20.269Z,42.67
2022-10-28T14:53:48.004Z,41.15
2022-10-28T14:56:30.365Z,40.85
2022-10-28T14:59:19.080Z,41.92
2022-10-28T15:01:59.156Z,42.78
2022-10-28T15:04:26.900Z,40.65
2022-10-28T15:06:54.317Z,45.38
2022-10-28T15:09:32.641Z,45.50
2022-10-28T15:12:12.021Z,41.30
2022-10-28T15:14:52.027Z,51.08
2022-10-28T15:17:27.563Z,39.17
2022-10-28T15:19:56.390Z,42.38
2022-10-28T15:22:25.275Z,50.40
2022-10-28T15:24:56.255Z,42.88
2022-10-28T15:27:24.615Z,50.17
2022-10-28T15:29:52.208Z,44.08
2022-10-28T15:32:19.368Z,44.60
2022-10-28T15:34:47.133Z,58.40
2022-10-28T15:37:21.734Z,44.00
2022-10-28T15:39:50.927Z,42.35
2022-10-28T15:42:40.924Z,45.03
2022-10-28T15:45:24.021Z,46.05
2022-10-28T15:47:51.777Z,46.03
2022-10-28T15:50:19.368Z,43.33
2022-10-28T15:52:52.350Z,45.40
2022-10-28T15:55:21.781Z,45.80
2022-10-28T15:58:19.331Z,49.70
2022-10-28T16:00:54.154Z,40.58
2022-10-28T16:03:25.299Z,37.63
2022-10-28T16:05:55.079Z,43.75
2022-10-28T16:08:31.011Z,49.42
2022-10-28T16:11:04.628Z,44.93
2022-10-28T16:13:42.400Z,43.10
2022-10-28T16:16:13.343Z,53.85
2022-10-28T16:18:47.004Z,42.03
2022-10-28T16:21:18.953Z,53.85
2022-10-28T16:23:49.372Z,48.83
2022-10-28T16:26:18.215Z,41.95
2022-10-28T16:28:46.288Z,44.92
2022-10-28T16:31:16.144Z,47.20
2022-10-28T16:33:45.256Z,61.60
2022-10-28T16:36:13.536Z,57.25
2022-10-28T16:38:41.650Z,51.10
2022-10-28T16:41:17.006Z,49.17
2022-10-28T16:43:45.587Z,42.60
2022-10-28T16:46:14.184Z,47.08
2022-10-28T16:48:42.012Z,50.03
2022-10-28T16:51:16.582Z,50.08
2022-10-28T16:53:47.577Z,53.47
2022-10-28T16:56:16.507Z,51.75
2022-10-28T16:58:44.650Z,48.22
2022-10-28T17:01:12.804Z,52.05
2022-10-28T17:03:41.160Z,52.20
2022-10-28T17:06:10.630Z,54.25
2022-10-28T17:11:25.579Z,48.13
2022-10-28T17:13:52.989Z,53.10
2022-10-28T17:16:20.299Z,57.80
2022-10-28T17:18:49.636Z,57.62
2022-10-28T17:21:17.015Z,55.28
2022-10-28T17:23:44.312Z,51.80
2022-10-28T17:26:11.916Z,62.25
2022-10-28T17:28:39.299Z,57.97
2022-10-28T17:31:07.502Z,55.12
2022-10-28T17:33:35.128Z,51.17
2022-10-28T17:36:06.351Z,57.17
2022-10-28T17:38:33.704Z,57.58
2022-10-28T17:41:01.593Z,56.90
2022-10-28T17:43:28.973Z,60.03
2022-10-28T17:46:06.243Z,64.50
2022-10-28T17:48:34.189Z,60.33
2022-10-28T17:51:01.614Z,50.70
2022-10-28T17:53:28.977Z,59.97
2022-10-28T17:55:57.658Z,60.72
2022-10-28T17:58:25.109Z,55.12
2022-10-28T18:00:59.496Z,58.78
2022-10-28T18:03:27.162Z,58.85
2022-10-28T18:05:54.674Z,58.83
2022-10-28T18:08:22.281Z,63.72
2022-10-28T18:10:56.690Z,66.90
2022-10-28T18:13:28.041Z,58.35
2022-10-28T18:15:56.367Z,59.45
2022-10-28T18:18:26.689Z,64.70
2022-10-28T18:20:54.456Z,67.85
2022-10-28T18:23:25.051Z,56.25
2022-10-28T18:26:02.527Z,65.40
2022-10-28T18:28:30.648Z,69.97
2022-10-28T18:31:08.164Z,67.25
2022-10-28T18:33:35.831Z,57.75
2022-10-28T18:36:07.477Z,67.45
2022-10-28T18:38:34.832Z,65.93
2022-10-28T18:41:02.528Z,62.85
2022-10-28T18:43:29.879Z,69.00
2022-10-28T18:46:00.998Z,65.72
2022-10-28T18:48:28.706Z,55.22
2022-10-28T18:51:00.395Z,69.20
2022-10-28T18:53:27.926Z,67.80
2022-10-28T18:56:01.448Z,67.18
2022-10-28T18:58:28.865Z,72.07
2022-10-28T19:01:06.437Z,70.35
2022-10-28T19:03:33.832Z,66.45
2022-10-28T19:06:06.165Z,70.18
2022-10-28T19:08:33.733Z,69.55
2022-10-28T19:11:01.644Z,77.85
2022-10-28T19:13:29.131Z,78.10
2022-10-28T19:15:56.555Z,76.20
2022-10-28T19:18:24.228Z,73.95
2022-10-28T19:20:52.118Z,71.32
2022-10-28T19:23:19.517Z,67.35
2022-10-28T19:25:54.556Z,71.47
2022-10-28T19:28:22.011Z,62.13
2022-10-28T19:30:49.685Z,62.60
2022-10-28T19:33:17.019Z,61.28
2022-10-28T19:35:44.379Z,51.67
2022-10-28T19:38:11.992Z,49.53
2022-10-28T19:40:39.294Z,52.17
2022-10-28T19:43:06.631Z,56.28
2022-10-28T19:45:34.207Z,54.80
2022-10-28T19:48:01.985Z,54.13
2022-10-28T19:50:29.304Z,63.47
2022-10-28T19:52:56.927Z,52.53
2022-10-28T19:55:24.287Z,51.65
2022-10-28T19:57:52.920Z,59.63
2022-10-28T20:00:20.771Z,57.80
2022-10-28T20:02:48.442Z,51.47
2022-10-28T20:05:15.883Z,56.08
2022-10-28T20:07:44.659Z,58.85
2022-10-28T20:10:12.262Z,51.33
2022-10-28T20:12:39.571Z,54.05
2022-10-28T20:15:07.459Z,53.90
2022-10-28T20:17:35.055Z,60.15
2022-10-28T20:20:02.383Z,63.03
2022-10-28T20:22:29.804Z,60.53
2022-10-28T20:24:57.414Z,65.75
2022-10-28T20:27:24.755Z,76.15
2022-10-28T20:29:52.329Z,65.05
2022-10-28T20:32:22.344Z,64.57
2022-10-28T20:34:49.720Z,58.70
2022-10-28T20:37:17.046Z,73.97
2022-10-28T20:39:44.627Z,71.35
2022-10-28T20:42:11.945Z,58.87
2022-10-28T20:44:39.266Z,52.80
2022-10-28T20:47:06.884Z,58.00
2022-10-28T20:49:34.244Z,59.97
2022-10-28T20:52:01.580Z,56.42
2022-10-28T20:54:29.183Z,64.10
2022-10-28T20:56:56.523Z,54.47
2022-10-28T20:59:23.927Z,56.42
2022-10-28T21:01:51.728Z,61.78
2022-10-28T21:04:19.243Z,57.90
2022-10-28T21:06:46.612Z,59.58
2022-10-28T21:09:14.247Z,65.00
2022-10-28T21:11:44.883Z,61.63
2022-10-28T21:14:12.227Z,69.62
2022-10-28T21:16:39.938Z,65.65
2022-10-28T21:19:07.304Z,58.90
2022-10-28T21:21:34.678Z,64.37
2022-10-28T21:24:02.331Z,61.47
2022-10-28T21:26:29.685Z,70.47
2022-10-28T21:28:57.080Z,82.68
2022-10-28T21:31:24.765Z,75.05
2022-10-28T21:33:53.019Z,54.50
2022-10-28T21:36:21.152Z,53.75
2022-10-28T21:38:48.773Z,51.47
2022-10-28T21:41:16.811Z,41.37
2022-10-28T21:43:45.467Z,47.65
2022-10-28T21:46:13.100Z,47.15
2022-10-28T21:48:40.442Z,48.45
2022-10-28T21:51:11.833Z,51.58
2022-10-28T21:53:42.999Z,50.25
2022-10-28T21:56:17.514Z,49.45
2022-10-28T21:58:47.113Z,51.10
2022-10-28T22:01:19.893Z,43.60
2022-10-28T22:03:47.595Z,45.95
2022-10-28T22:06:14.981Z,45.10
2022-10-28T22:08:42.375Z,42.85
2022-10-28T22:11:12.369Z,47.20
2022-10-28T22:13:39.691Z,40.92
2022-10-28T22:16:08.569Z,41.83
2022-10-28T22:18:36.430Z,44.58
2022-10-28T22:21:07.800Z,46.80
2022-10-28T22:23:35.493Z,45.72
2022-10-28T22:26:07.367Z,49.95
2022-10-28T22:28:34.777Z,48.35
2022-10-28T22:31:03.893Z,49.00
2022-10-28T22:33:31.599Z,46.40
2022-10-28T22:36:03.681Z,45.33
2022-10-28T22:38:31.085Z,40.80
2022-10-28T22:41:03.531Z,40.97
2022-10-28T22:43:30.859Z,46.88
2022-10-28T22:45:58.765Z,46.50
2022-10-28T22:48:26.453Z,47.95
2022-10-28T22:50:53.786Z,50.97
2022-10-28T22:53:21.187Z,43.95
2022-10-28T22:55:48.888Z,51.33
2022-10-28T22:58:16.547Z,49.97
2022-10-28T23:00:44.150Z,43.70
2022-10-28T23:03:12.341Z,43.00
2022-10-28T23:05:39.916Z,45.58
2022-10-28T23:08:07.362Z,47.08
2022-10-28T23:10:34.954Z,41.72
2022-10-28T23:13:02.496Z,48.10
2022-10-28T23:15:29.872Z,42.38
2022-10-28T23:17:57.745Z,43.25
2022-10-28T23:20:25.449Z,46.83
2022-10-28T23:22:55.379Z,48.45
2022-10-28T23:25:22.955Z,45.38
2022-10-28T23:27:50.277Z,49.13
2022-10-28T23:30:17.619Z,50.15
2022-10-28T23:32:45.176Z,50.63
2022-10-28T23:35:12.503Z,52.13
2022-10-28T23:37:39.841Z,54.58
2022-10-28T23:42:42.296Z,56.70
2022-10-28T23:45:09.996Z,59.67
2022-10-28T23:47:37.304Z,66.37
2022-10-28T23:50:04.920Z,55.38
2022-10-28T23:52:32.492Z,67.65
2022-10-28T23:54:59.836Z,75.32
2022-10-28T23:57:27.187Z,81.60
2022-10-28T23:59:54.763Z,79.07
